Time;durP1;ratioP1;P1;durP2;ratioP2;P2;SDS_P1;SDS_P2;PMS_P1;PMS_P2;Temp;Humidity;BMP_temperature;BMP_pressure;BME280_temperature;BME280_humidity;BME280_pressure;Samples;Min_cycle;Max_cycle;Signal;HPM_P1;HPM_P2
2022/06/21 00:00:56;;;;;;;0.73;0.60;;;;;;;;;;21027134;28;20219;-72
2022/06/21 00:10:58;;;;;;;1.73;0.70;;;;;;;;;;21026233;28;20268;-72
2022/06/21 00:21:00;;;;;;;2.07;0.70;;;;;;;;;;21041914;28;20702;-72
2022/06/21 00:31:02;;;;;;;1.77;0.70;;;;;;;;;;21008328;28;20602;-72
2022/06/21 00:41:08;;;;;;;2.27;0.70;;;19.40;99.90;;;;;;21006670;28;20288;-72
2022/06/21 00:51:16;;;;;;;1.70;0.70;;;;;;;;;;21023399;28;20272;-72
2022/06/21 01:01:26;;;;;;;0.80;0.60;;;;;;;;;;21039284;28;20296;-72
2022/06/21 01:11:37;;;;;;;1.60;0.70;;;19.00;99.90;;;;;;21054801;28;20766;-72
2022/06/21 01:21:42;;;;;;;1.40;0.90;;;19.10;99.90;;;;;;21021434;28;20226;-72
2022/06/21 01:31:44;;;;;;;1.40;0.83;;;19.60;99.90;;;;;;21021204;28;20293;-72
2022/06/21 01:41:46;;;;;;;2.07;0.90;;;;;;;;;;21020471;28;20219;-72
2022/06/21 01:51:56;;;;;;;1.10;0.80;;;19.00;99.90;;;;;;21031303;28;20618;-72
2022/06/21 02:02:05;;;;;;;2.10;0.93;;;;;;;;;;21052572;28;20774;-71
2022/06/21 02:12:09;;;;;;;2.17;1.00;;;;;;;;;;20961460;28;20207;-72
2022/06/21 02:22:24;;;;;;;1.40;0.73;;;18.40;99.90;;;;;;21056198;28;20260;-72
2022/06/21 02:32:28;;;;;;;1.50;0.77;;;;;;;;;;21034295;28;20253;-72
2022/06/21 02:42:33;;;;;;;1.23;0.90;;;18.40;99.90;;;;;;21017021;28;20221;-72
2022/06/21 02:52:41;;;;;;;1.90;1.03;;;18.40;99.90;;;;;;21032996;28;20240;-72
2022/06/21 03:02:43;;;;;;;2.40;1.30;;;;;;;;;;21014313;28;20282;-72
2022/06/21 03:12:48;;;;;;;2.40;1.20;;;;;;;;;;21047512;28;20262;-71
2022/06/21 03:22:52;;;;;;;2.07;1.10;;;17.90;99.90;;;;;;21048003;28;20217;-74
2022/06/21 03:32:55;;;;;;;1.30;1.00;;;17.70;99.90;;;;;;21056078;28;20217;-72
2022/06/21 03:43:04;;;;;;;2.03;1.17;;;17.80;99.90;;;;;;20971587;28;20220;-70
2022/06/21 03:53:15;;;;;;;1.67;1.20;;;17.90;99.90;;;;;;20960657;28;20266;-72
2022/06/21 04:03:28;;;;;;;1.40;1.00;;;17.60;99.90;;;;;;20944548;28;20225;-72
2022/06/21 04:13:34;;;;;;;1.70;1.03;;;;;;;;;;20959769;28;20278;-72
2022/06/21 04:24:04;;;;;;;2.20;1.50;;;17.80;99.90;;;;;;20958745;28;20221;-68
2022/06/21 04:34:10;;;;;;;1.80;1.40;;;;;;;;;;20974561;28;20264;-71
2022/06/21 04:44:15;;;;;;;2.80;1.70;;;;;;;;;;20940706;28;20205;-71
2022/06/21 04:54:20;;;;;;;2.33;1.30;;;;;;;;;;20939710;28;20628;-69
2022/06/21 05:04:28;;;;;;;3.90;1.50;;;;;;;;;;20939545;28;20570;-71
2022/06/21 05:14:35;;;;;;;4.93;1.00;;;18.60;99.90;;;;;;20952430;28;20246;-71
2022/06/21 05:24:37;;;;;;;2.00;1.20;;;;;;;;;;21003748;28;20567;-70
2022/06/21 05:34:44;;;;;;;2.17;1.33;;;18.70;99.90;;;;;;21020612;28;20216;-70
2022/06/21 05:44:53;;;;;;;1.53;1.13;;;;;;;;;;21020132;28;20204;-70
2022/06/21 05:55:05;;;;;;;2.33;1.10;;;;;;;;;;21012352;28;20286;-70
2022/06/21 06:05:12;;;;;;;2.10;1.47;;;;;;;;;;21032102;28;20238;-70
2022/06/21 06:15:17;;;;;;;2.37;1.30;;;;;;;;;;21018762;28;20667;-72
2022/06/21 06:25:28;;;;;;;3.70;1.70;;;19.30;99.90;;;;;;21035276;28;20282;-72
2022/06/21 06:35:30;;;;;;;4.93;1.60;;;;;;;;;;21020215;28;20247;-72
2022/06/21 06:45:35;;;;;;;3.97;1.57;;;19.50;99.90;;;;;;21033549;28;20220;-72
2022/06/21 06:55:46;;;;;;;1.97;1.10;;;19.70;99.90;;;;;;21016255;28;20276;-72
2022/06/21 07:06:38;;;;;;;5.00;1.40;;;19.80;99.90;;;;;;21036651;28;20201;-71
2022/06/21 07:17:12;;;;;;;2.73;1.60;;;;;;;;;;20903693;28;20228;-70
2022/06/21 07:27:16;;;;;;;2.73;1.20;;;;;;;;;;20961649;28;20216;-71
2022/06/21 07:37:18;;;;;;;1.03;0.60;;;;;;;;;;20944888;28;20250;-71
2022/06/21 07:47:34;;;;;;;0.97;0.50;;;20.10;99.90;;;;;;20861029;28;20224;-70
2022/06/21 07:57:40;;;;;;;1.60;0.60;;;;;;;;;;20956702;28;20637;-71
2022/06/21 08:07:43;;;;;;;1.23;0.60;;;;;;;;;;20938110;28;20208;-70
2022/06/21 08:17:45;;;;;;;3.40;0.60;;;;;;;;;;20934868;28;20217;-70
2022/06/21 08:28:02;;;;;;;1.93;0.60;;;21.50;86.40;;;;;;20952693;28;20606;-70
2022/06/21 08:38:04;;;;;;;2.83;0.60;;;;;;;;;;20933586;28;20221;-71
2022/06/21 08:48:28;;;;;;;0.60;0.40;;;;;;;;;;20984803;28;20296;-70
2022/06/21 08:58:49;;;;;;;1.00;0.50;;;;;;;;;;21030114;28;20217;-70
2022/06/21 09:08:51;;;;;;;0.63;0.47;;;;;;;;;;21047410;28;20272;-70
2022/06/21 09:19:03;;;;;;;0.97;0.50;;;22.80;79.10;;;;;;21037015;28;20220;-70
2022/06/21 09:29:31;;;;;;;0.93;0.50;;;22.40;78.90;;;;;;21036559;28;20248;-70
2022/06/21 09:39:58;;;;;;;1.27;0.60;;;22.80;92.10;;;;;;21034943;28;20223;-70
2022/06/21 09:50:19;;;;;;;1.27;0.40;;;22.20;91.10;;;;;;20983193;22;20303;-74
2022/06/21 10:00:22;;;;;;;0.85;0.43;;;;;;;;;;21007493;28;20344;-73
2022/06/21 10:10:45;;;;;;;0.57;0.52;;;;;;;;;;20992405;28;20611;-74
2022/06/21 10:21:02;;;;;;;1.00;0.60;;;;;;;;;;20999397;28;20220;-74
2022/06/21 10:31:16;;;;;;;0.60;0.40;;;;;;;;;;20997670;28;20236;-73
2022/06/21 10:41:17;;;;;;;1.13;0.50;;;;;;;;;;20997414;28;20236;-74
2022/06/21 10:51:34;;;;;;;0.63;0.38;;;25.00;76.50;;;;;;20993994;28;20292;-74
2022/06/21 11:01:43;;;;;;;1.38;0.50;;;;;;;;;;20993631;28;20636;-74
2022/06/21 11:11:55;;;;;;;1.95;0.60;;;;;;;;;;20995421;28;20201;-75
2022/06/21 11:22:25;;;;;;;0.85;0.40;;;25.50;72.80;;;;;;20910790;28;20219;-72
2022/06/21 11:32:54;;;;;;;2.05;0.57;;;25.00;84.70;;;;;;20907004;28;20213;-73
2022/06/21 11:42:58;;;;;;;1.00;0.50;;;;;;;;;;20897512;28;20222;-71
2022/06/21 11:53:25;;;;;;;1.08;0.55;;;26.00;77.80;;;;;;20909045;28;20224;-71
2022/06/21 12:03:32;;;;;;;0.90;0.30;;;;;;;;;;20908277;28;20231;-72
2022/06/21 12:13:34;;;;;;;0.68;0.50;;;;;;;;;;20907632;28;20624;-71
2022/06/21 12:23:47;;;;;;;1.95;0.50;;;26.30;82.30;;;;;;20907144;28;20678;-72
2022/06/21 12:34:11;;;;;;;0.47;0.40;;;26.60;74.80;;;;;;20898642;28;20261;-72
2022/06/21 12:44:31;;;;;;;1.95;0.60;;;;;;;;;;20904607;28;20236;-72
2022/06/21 12:54:50;;;;;;;2.28;0.60;;;;;;;;;;20905779;28;20230;-71
2022/06/21 13:05:09;;;;;;;1.70;0.63;;;26.20;71.70;;;;;;20898643;28;20211;-71
2022/06/21 13:15:20;;;;;;;1.92;0.70;;;;;;;;;;20896530;28;20242;-71
2022/06/21 13:25:31;;;;;;;1.48;0.60;;;;;;;;;;20903510;28;20204;-72
2022/06/21 13:35:40;;;;;;;1.70;0.88;;;;;;;;;;20903844;28;20219;-72
2022/06/21 13:45:45;;;;;;;1.10;0.60;;;27.40;82.70;;;;;;20909746;28;20699;-72
2022/06/21 13:56:17;;;;;;;1.40;0.50;;;27.70;81.60;;;;;;20916854;28;20580;-72
2022/06/21 14:06:28;;;;;;;1.33;0.60;;;;;;;;;;20900434;28;20248;-71
2022/06/21 14:16:36;;;;;;;1.27;0.55;;;;;;;;;;20916121;28;20238;-71
2022/06/21 14:26:43;;;;;;;1.20;0.50;;;;;;;;;;20915174;28;20208;-71
2022/06/21 14:37:00;;;;;;;2.13;0.50;;;28.30;77.80;;;;;;20912186;28;20211;-71
2022/06/21 14:47:17;;;;;;;2.05;0.93;;;;;;;;;;20913101;28;20269;-71
2022/06/21 14:57:24;;;;;;;3.70;1.23;;;;;;;;;;20912167;28;20262;-71
2022/06/21 15:07:41;;;;;;;1.60;0.65;;;;;;;;;;20913436;28;20258;-71
2022/06/21 15:17:51;;;;;;;1.45;0.63;;;;;;;;;;20913035;28;20234;-71
2022/06/21 15:28:12;;;;;;;2.35;0.60;;;;;;;;;;20911168;28;20212;-71
2022/06/21 15:38:17;;;;;;;1.23;0.60;;;29.40;77.50;;;;;;20911040;28;20224;-71
2022/06/21 15:59:01;;;;;;;1.05;0.70;;;;;;;;;;20905975;28;20237;-71
2022/06/21 16:09:09;;;;;;;0.77;0.52;;;29.60;79.50;;;;;;20868116;28;20252;-70
2022/06/21 16:19:14;;;;;;;2.55;0.77;;;29.70;79.30;;;;;;20957739;28;20220;-72
2022/06/21 16:29:21;;;;;;;0.80;0.68;;;29.80;81.10;;;;;;20899244;28;20688;-72
2022/06/21 16:39:29;;;;;;;1.38;0.70;;;;;;;;;;20890676;28;20377;-73
2022/06/21 16:49:51;;;;;;;1.77;1.00;;;;;;;;;;20911506;28;20219;-72
2022/06/21 16:59:53;;;;;;;1.30;0.60;;;;;;;;;;20893949;28;20220;-72
2022/06/21 17:09:59;;;;;;;2.00;0.88;;;29.10;84.90;;;;;;20913013;28;20568;-72
2022/06/21 17:20:23;;;;;;;2.75;1.95;;;28.60;79.60;;;;;;20943123;28;20265;-72
2022/06/21 17:30:27;;;;;;;3.42;0.85;;;;;;;;;;20978129;28;20336;-72
2022/06/21 17:40:36;;;;;;;4.35;2.17;;;;;;;;;;20977422;28;20705;-72
2022/06/21 17:50:40;;;;;;;3.60;2.55;;;;;;;;;;20812914;28;20270;-70
2022/06/21 18:00:55;;;;;;;1.25;0.70;;;28.20;75.10;;;;;;20831089;28;20219;-69
2022/06/21 18:11:25;;;;;;;1.65;0.90;;;28.00;75.50;;;;;;20978010;28;20564;-70
2022/06/21 18:21:45;;;;;;;1.85;1.02;;;;;;;;;;20922303;28;20203;-71
2022/06/21 18:31:51;;;;;;;5.07;0.90;;;;;;;;;;20896672;28;20750;-72
2022/06/21 18:42:21;;;;;;;2.25;0.80;;;;;;;;;;20915116;28;20227;-71
2022/06/21 18:52:33;;;;;;;2.50;1.10;;;27.60;77.30;;;;;;20942519;28;20252;-71
2022/06/21 19:02:55;;;;;;;2.70;0.90;;;;;;;;;;20997957;28;20219;-72
2022/06/21 19:12:57;;;;;;;1.40;0.80;;;;;;;;;;20892433;28;20763;-71
2022/06/21 19:23:11;;;;;;;1.88;0.40;;;;;;;;;;20900520;28;20239;-71
2022/06/21 19:33:16;;;;;;;1.10;0.47;;;;;;;;;;20898362;28;20197;-71
2022/06/21 19:43:22;;;;;;;0.80;0.50;;;;;;;;;;20902029;28;20211;-71
2022/06/21 19:54:04;;;;;;;1.05;0.50;;;26.90;83.80;;;;;;20894657;28;20656;-72
2022/06/21 20:04:08;;;;;;;1.65;0.50;;;26.80;85.00;;;;;;20900185;28;20219;-70
2022/06/21 20:14:28;;;;;;;0.95;0.63;;;;;;;;;;20954466;28;20231;-70
2022/06/21 20:24:45;;;;;;;2.40;0.70;;;;;;;;;;20932585;28;20641;-71
2022/06/21 20:34:57;;;;;;;1.13;0.60;;;;;;;;;;20896236;28;20229;-72
2022/06/21 20:44:59;;;;;;;0.77;0.52;;;;;;;;;;20900489;28;20720;-70
2022/06/21 20:55:13;;;;;;;2.00;0.60;;;;;;;;;;20889226;28;20255;-71
2022/06/21 21:05:20;;;;;;;2.80;0.60;;;25.90;89.80;;;;;;20898900;28;20329;-70
2022/06/21 21:15:24;;;;;;;1.20;0.52;;;;;;;;;;20904435;28;20196;-71
2022/06/21 21:25:28;;;;;;;1.70;0.60;;;;;;;;;;20903619;28;20672;-70
2022/06/21 21:35:50;;;;;;;1.05;0.50;;;;;;;;;;20903883;28;20754;-71
2022/06/21 21:45:56;;;;;;;4.65;0.80;;;25.60;87.10;;;;;;20901535;28;20236;-70
2022/06/21 21:55:58;;;;;;;1.17;0.57;;;;;;;;;;20889776;28;20217;-70
2022/06/21 22:06:00;;;;;;;0.95;0.55;;;;;;;;;;20908929;28;20212;-71
2022/06/21 22:16:14;;;;;;;1.00;0.52;;;;;;;;;;20917509;28;20216;-70
2022/06/21 22:26:37;;;;;;;1.52;0.50;;;24.90;88.60;;;;;;20884133;28;20258;-71
2022/06/21 22:36:43;;;;;;;0.90;0.57;;;24.50;89.20;;;;;;20915764;28;20228;-70
2022/06/21 22:46:46;;;;;;;0.80;0.40;;;24.30;90.70;;;;;;20915949;28;20224;-71
2022/06/21 22:57:03;;;;;;;1.00;0.55;;;;;;;;;;20915099;28;20691;-70
2022/06/21 23:07:27;;;;;;;1.75;0.68;;;;;;;;;;20895676;28;20620;-70
2022/06/21 23:17:29;;;;;;;2.35;0.50;;;;;;;;;;20911998;28;20879;-70
2022/06/21 23:27:32;;;;;;;1.33;0.60;;;;;;;;;;20913017;28;20671;-70
2022/06/21 23:37:36;;;;;;;2.53;0.63;;;;;;;;;;20911193;28;20236;-70
2022/06/21 23:47:39;;;;;;;1.05;0.60;;;23.90;83.50;;;;;;20911034;28;20216;-70
2022/06/21 23:57:41;;;;;;;0.90;0.50;;;;;;;;;;20910345;28;20627;-70
